createdAt,value
2022-09-04T00:01:38.769Z,20.70
2022-09-04T00:04:32.012Z,20.69
2022-09-04T00:06:42.810Z,20.62
2022-09-04T00:08:47.400Z,20.62
2022-09-04T00:11:15.268Z,20.68
2022-09-04T00:13:29.030Z,20.60
2022-09-04T00:15:36.521Z,20.56
2022-09-04T00:18:03.002Z,20.56
2022-09-04T00:20:14.233Z,20.52
2022-09-04T00:22:33.759Z,20.51
2022-09-04T00:24:40.088Z,20.52
2022-09-04T00:26:41.957Z,20.51
2022-09-04T00:29:01.267Z,20.54
2022-09-04T00:31:29.157Z,20.55
2022-09-04T00:33:49.890Z,20.52
2022-09-04T00:35:57.905Z,20.53
2022-09-04T00:38:21.501Z,20.46
2022-09-04T00:40:37.747Z,20.57
2022-09-04T00:43:10.758Z,20.53
2022-09-04T00:45:42.044Z,20.54
2022-09-04T00:48:31.989Z,20.54
2022-09-04T00:51:15.188Z,20.51
2022-09-04T00:53:36.332Z,20.43
2022-09-04T00:55:54.165Z,20.44
2022-09-04T00:58:33.354Z,20.43
2022-09-04T01:00:36.561Z,20.39
2022-09-04T01:02:47.181Z,20.33
2022-09-04T01:05:19.835Z,20.39
2022-09-04T01:07:48.327Z,20.40
2022-09-04T01:10:31.108Z,20.26
2022-09-04T01:12:40.579Z,20.23
2022-09-04T01:14:48.645Z,20.28
2022-09-04T01:17:06.331Z,20.14
2022-09-04T01:19:41.640Z,20.18
2022-09-04T01:21:46.171Z,20.21
2022-09-04T01:24:15.333Z,20.17
2022-09-04T01:26:35.559Z,20.19
2022-09-04T01:28:53.333Z,20.13
2022-09-04T01:31:08.202Z,20.21
2022-09-04T01:33:27.760Z,20.10
2022-09-04T01:35:44.589Z,20.09
2022-09-04T01:37:58.620Z,20.13
2022-09-04T01:40:23.828Z,20.13
2022-09-04T01:42:56.375Z,20.04
2022-09-04T01:44:58.051Z,20.10
2022-09-04T01:47:40.225Z,20.10
2022-09-04T01:50:01.943Z,20.03
2022-09-04T01:52:21.828Z,20.01
2022-09-04T01:54:50.376Z,20.11
2022-09-04T01:57:03.246Z,20.03
2022-09-04T01:59:27.203Z,20.03
2022-09-04T02:01:48.670Z,20.04
2022-09-04T02:03:54.465Z,19.99
2022-09-04T02:06:37.238Z,20.08
2022-09-04T02:09:02.948Z,20.02
2022-09-04T02:11:15.288Z,20.09
2022-09-04T02:13:29.498Z,19.91
2022-09-04T02:16:10.601Z,20.00
2022-09-04T02:19:01.247Z,20.06
2022-09-04T02:21:13.636Z,20.13
2022-09-04T02:23:26.725Z,20.10
2022-09-04T02:25:56.388Z,20.05
2022-09-04T02:28:45.820Z,20.12
2022-09-04T02:31:02.687Z,20.11
2022-09-04T02:33:19.370Z,20.10
2022-09-04T02:35:37.020Z,20.06
2022-09-04T02:38:27.878Z,20.02
2022-09-04T02:40:54.073Z,20.07
2022-09-04T02:43:10.931Z,20.13
2022-09-04T02:45:45.921Z,20.15
2022-09-04T02:47:55.754Z,20.12
2022-09-04T02:50:30.776Z,20.08
2022-09-04T02:52:56.655Z,20.11
2022-09-04T02:55:14.461Z,20.07
2022-09-04T02:57:40.777Z,20.16
2022-09-04T03:00:26.041Z,20.12
2022-09-04T03:02:33.792Z,20.06
2022-09-04T03:04:59.159Z,20.06
2022-09-04T03:07:10.020Z,20.02
2022-09-04T03:09:47.101Z,20.06
2022-09-04T03:12:00.866Z,19.98
2022-09-04T03:14:05.340Z,19.95
2022-09-04T03:16:15.808Z,20.01
2022-09-04T03:18:54.846Z,20.02
2022-09-04T03:21:12.479Z,20.13
2022-09-04T03:23:32.859Z,20.04
2022-09-04T03:26:11.291Z,20.04
2022-09-04T03:28:24.936Z,20.05
2022-09-04T03:30:28.846Z,20.05
2022-09-04T03:32:33.500Z,20.01
2022-09-04T03:35:17.621Z,20.07
2022-09-04T03:37:46.968Z,20.04
2022-09-04T03:40:20.598Z,20.08
2022-09-04T03:42:25.354Z,20.00
2022-09-04T03:44:52.372Z,20.07
2022-09-04T03:46:54.190Z,20.06
2022-09-04T03:49:09.543Z,20.10
2022-09-04T03:51:25.684Z,20.05
2022-09-04T03:53:49.984Z,20.00
2022-09-04T03:56:26.600Z,20.02
2022-09-04T03:58:59.857Z,19.99
2022-09-04T04:01:25.368Z,20.03
2022-09-04T04:03:40.179Z,20.00
2022-09-04T04:06:16.028Z,20.10
2022-09-04T04:08:56.753Z,19.98
2022-09-04T04:11:26.352Z,19.98
2022-09-04T04:14:05.244Z,20.02
2022-09-04T04:16:24.475Z,20.02
2022-09-04T04:18:39.231Z,20.01
2022-09-04T04:21:13.138Z,19.95
2022-09-04T04:23:24.885Z,19.94
2022-09-04T04:25:48.870Z,20.08
2022-09-04T04:28:36.013Z,20.08
2022-09-04T04:30:52.664Z,20.05
2022-09-04T04:33:20.961Z,20.08
2022-09-04T04:36:17.759Z,20.08
2022-09-04T04:38:30.726Z,20.05
2022-09-04T04:40:45.380Z,20.04
2022-09-04T04:43:12.967Z,20.02
2022-09-04T04:45:55.520Z,20.02
2022-09-04T04:48:31.875Z,20.07
2022-09-04T04:51:05.371Z,20.09
2022-09-04T04:53:25.004Z,20.07
2022-09-04T04:55:35.173Z,20.17
2022-09-04T04:57:54.366Z,20.15
2022-09-04T05:00:08.240Z,20.15
2022-09-04T05:02:31.194Z,20.13
2022-09-04T05:04:58.255Z,20.17
2022-09-04T05:07:34.740Z,20.21
2022-09-04T05:09:51.497Z,20.14
2022-09-04T05:12:18.090Z,20.18
2022-09-04T05:15:02.053Z,20.17
2022-09-04T05:17:18.367Z,20.12
2022-09-04T05:19:45.190Z,20.10
2022-09-04T05:22:04.350Z,20.13
2022-09-04T05:24:34.274Z,20.11
2022-09-04T05:26:35.936Z,20.15
2022-09-04T05:28:50.119Z,20.09
2022-09-04T05:31:14.122Z,20.07
2022-09-04T05:33:29.221Z,20.11
2022-09-04T05:35:38.269Z,20.17
2022-09-04T05:37:45.236Z,20.20
2022-09-04T05:40:23.557Z,20.17
2022-09-04T05:42:34.040Z,20.21
2022-09-04T05:44:59.982Z,20.20
2022-09-04T05:47:11.689Z,20.10
2022-09-04T05:49:45.903Z,20.14
2022-09-04T05:52:03.840Z,20.02
2022-09-04T05:54:44.749Z,20.05
2022-09-04T05:57:05.116Z,20.16
2022-09-04T05:59:26.256Z,20.14
2022-09-04T06:01:55.748Z,20.14
2022-09-04T06:04:06.675Z,20.22
2022-09-04T06:06:20.522Z,20.22
2022-09-04T06:08:54.651Z,20.16
2022-09-04T06:11:06.775Z,20.17
2022-09-04T06:13:23.975Z,20.18
2022-09-04T06:15:53.364Z,20.13
2022-09-04T06:18:21.106Z,20.18
2022-09-04T06:20:43.152Z,20.25
2022-09-04T06:22:55.006Z,20.29
2022-09-04T06:25:25.670Z,20.27
2022-09-04T06:27:27.347Z,20.32
2022-09-04T06:29:35.646Z,20.32
2022-09-04T06:31:43.390Z,20.35
2022-09-04T06:34:20.272Z,20.30
2022-09-04T06:36:35.960Z,20.40
2022-09-04T06:39:16.065Z,20.30
2022-09-04T06:41:36.236Z,20.36
2022-09-04T06:44:02.339Z,20.44
2022-09-04T06:46:27.469Z,20.44
2022-09-04T06:49:06.023Z,20.37
2022-09-04T06:51:27.177Z,20.40
2022-09-04T06:53:31.920Z,20.30
2022-09-04T06:55:49.609Z,20.38
2022-09-04T06:58:19.846Z,20.33
2022-09-04T07:00:21.969Z,20.40
2022-09-04T07:02:54.970Z,20.41
2022-09-04T07:05:06.238Z,20.41
2022-09-04T07:07:26.158Z,20.40
2022-09-04T07:09:42.025Z,20.35
2022-09-04T07:11:57.495Z,20.33
2022-09-04T07:14:17.009Z,20.35
2022-09-04T07:16:36.426Z,20.45
2022-09-04T07:18:56.378Z,20.51
2022-09-04T07:21:19.681Z,20.46
2022-09-04T07:23:49.167Z,20.49
2022-09-04T07:26:35.313Z,20.52
2022-09-04T07:29:07.241Z,20.53
2022-09-04T07:31:38.877Z,20.54
2022-09-04T07:34:08.256Z,20.52
2022-09-04T07:36:37.315Z,20.57
2022-09-04T07:38:52.461Z,20.55
2022-09-04T07:41:02.424Z,20.62
2022-09-04T07:43:35.046Z,20.61
2022-09-04T07:45:48.781Z,20.67
2022-09-04T07:48:41.320Z,20.72
2022-09-04T07:51:21.598Z,20.74
2022-09-04T07:53:31.951Z,20.75
2022-09-04T07:55:40.590Z,20.82
2022-09-04T07:58:02.500Z,20.84
2022-09-04T08:00:05.067Z,20.83
2022-09-04T08:02:06.811Z,20.88
2022-09-04T08:04:44.516Z,20.96
2022-09-04T08:06:56.973Z,20.90
2022-09-04T08:09:04.650Z,21.01
2022-09-04T08:11:15.267Z,21.06
2022-09-04T08:14:00.463Z,21.11
2022-09-04T08:16:19.038Z,21.13
2022-09-04T08:18:39.051Z,21.19
2022-09-04T08:21:02.532Z,21.15
2022-09-04T08:23:36.942Z,21.14
2022-09-04T08:26:12.254Z,21.26
2022-09-04T08:28:57.071Z,21.23
2022-09-04T08:31:26.468Z,21.25
2022-09-04T08:33:28.358Z,21.14
2022-09-04T08:35:52.684Z,21.23
2022-09-04T08:38:12.662Z,21.24
2022-09-04T08:40:26.104Z,21.28
2022-09-04T08:42:46.355Z,21.33
2022-09-04T08:45:15.431Z,21.35
2022-09-04T08:47:32.798Z,21.44
2022-09-04T08:50:04.624Z,21.55
2022-09-04T08:52:24.917Z,21.63
2022-09-04T08:54:59.142Z,21.65
2022-09-04T08:57:12.688Z,21.70
2022-09-04T08:59:17.195Z,21.78
2022-09-04T09:01:34.416Z,21.79
2022-09-04T09:04:06.357Z,21.67
2022-09-04T09:06:26.723Z,21.79
2022-09-04T09:08:56.425Z,21.63
2022-09-04T09:11:15.445Z,21.84
2022-09-04T09:13:45.387Z,21.89
2022-09-04T09:16:24.125Z,21.84
2022-09-04T09:18:40.508Z,21.88
2022-09-04T09:20:54.519Z,21.90
2022-09-04T09:23:18.383Z,21.87
2022-09-04T09:25:25.142Z,21.83
2022-09-04T09:27:29.859Z,21.82
2022-09-04T09:30:02.292Z,21.97
2022-09-04T09:32:41.880Z,22.06
2022-09-04T09:35:01.825Z,22.05
2022-09-04T09:37:12.527Z,22.10
2022-09-04T09:39:17.048Z,22.10
2022-09-04T09:41:24.486Z,22.24
2022-09-04T09:43:46.479Z,22.21
2022-09-04T09:46:12.917Z,22.24
2022-09-04T09:48:41.413Z,22.36
2022-09-04T09:50:52.032Z,22.29
2022-09-04T09:53:47.564Z,22.38
2022-09-04T09:56:14.088Z,22.36
2022-09-04T09:58:45.146Z,22.31
2022-09-04T10:01:08.276Z,22.41
2022-09-04T10:03:39.725Z,22.41
2022-09-04T10:06:20.184Z,22.44
2022-09-04T10:08:55.618Z,22.48
2022-09-04T10:10:57.297Z,22.36
2022-09-04T10:13:27.830Z,22.37
2022-09-04T10:16:04.632Z,22.46
2022-09-04T10:18:32.950Z,22.54
2022-09-04T10:21:13.158Z,22.64
2022-09-04T10:23:20.949Z,22.64
2022-09-04T10:25:55.087Z,22.70
2022-09-04T10:28:34.922Z,22.75
2022-09-04T10:31:13.990Z,22.84
2022-09-04T10:33:32.856Z,22.70
2022-09-04T10:35:44.051Z,22.80
2022-09-04T10:38:07.447Z,22.91
2022-09-04T10:40:43.750Z,22.89
2022-09-04T10:42:56.053Z,22.83
2022-09-04T10:45:00.501Z,22.89
2022-09-04T10:47:14.345Z,22.82
2022-09-04T10:49:34.449Z,22.85
2022-09-04T10:51:59.080Z,22.95
2022-09-04T10:54:30.444Z,23.07
2022-09-04T10:56:59.854Z,23.00
2022-09-04T10:59:21.384Z,23.13
2022-09-04T11:01:34.294Z,23.12
2022-09-04T11:03:58.783Z,23.09
2022-09-04T11:06:38.105Z,23.14
2022-09-04T11:09:00.847Z,23.17
2022-09-04T11:11:14.259Z,23.17
2022-09-04T11:13:31.135Z,23.23
2022-09-04T11:16:04.093Z,23.40
2022-09-04T11:18:26.318Z,23.48
2022-09-04T11:20:45.308Z,23.60
2022-09-04T11:23:24.771Z,23.58
2022-09-04T11:26:25.039Z,23.64
2022-09-04T11:29:03.855Z,23.74
2022-09-04T11:31:38.297Z,23.67
2022-09-04T11:33:48.953Z,23.88
2022-09-04T11:35:59.642Z,23.78
2022-09-04T11:38:10.658Z,23.79
2022-09-04T11:40:32.289Z,23.73
2022-09-04T11:42:56.178Z,23.90
2022-09-04T11:45:23.716Z,23.94
2022-09-04T11:48:03.254Z,23.87
2022-09-04T11:50:23.939Z,23.98
2022-09-04T11:52:28.364Z,24.05
2022-09-04T11:54:45.607Z,24.07
2022-09-04T11:57:12.442Z,24.13
2022-09-04T11:59:55.476Z,24.14
2022-09-04T12:02:18.918Z,23.98
2022-09-04T12:04:40.978Z,23.96
2022-09-04T12:07:17.125Z,24.02
2022-09-04T12:09:38.996Z,24.07
2022-09-04T12:12:11.163Z,24.03
2022-09-04T12:14:53.102Z,23.98
2022-09-04T12:17:25.763Z,24.09
2022-09-04T12:19:52.356Z,24.12
2022-09-04T12:22:15.443Z,23.95
2022-09-04T12:24:41.706Z,24.11
2022-09-04T12:26:59.709Z,24.26
2022-09-04T12:29:20.546Z,24.29
2022-09-04T12:31:32.528Z,24.37
2022-09-04T12:34:06.557Z,24.48
2022-09-04T12:36:38.559Z,24.38
2022-09-04T12:39:31.724Z,24.29
2022-09-04T12:42:01.909Z,24.32
2022-09-04T12:44:25.500Z,24.26
2022-09-04T12:47:00.757Z,24.07
2022-09-04T12:49:23.096Z,24.04
2022-09-04T12:51:44.050Z,23.97
2022-09-04T12:54:24.986Z,23.95
2022-09-04T12:56:37.206Z,23.89
2022-09-04T12:58:49.383Z,23.94
2022-09-04T13:01:08.587Z,23.99
2022-09-04T13:03:29.961Z,24.06
2022-09-04T13:05:52.814Z,24.10
2022-09-04T13:08:26.678Z,24.14
2022-09-04T13:10:41.387Z,24.08
2022-09-04T13:13:05.905Z,24.18
2022-09-04T13:15:19.504Z,24.19
2022-09-04T13:17:44.738Z,24.21
2022-09-04T13:20:13.147Z,24.25
2022-09-04T13:22:53.714Z,24.36
2022-09-04T13:25:27.372Z,24.51
2022-09-04T13:27:58.746Z,24.51
2022-09-04T13:30:30.296Z,24.60
2022-09-04T13:32:50.883Z,24.63
2022-09-04T13:34:58.927Z,24.65
2022-09-04T13:37:29.353Z,24.68
2022-09-04T13:40:09.529Z,24.75
2022-09-04T13:42:39.820Z,24.94
2022-09-04T13:45:02.874Z,24.98
2022-09-04T13:47:32.974Z,25.13
2022-09-04T13:49:44.413Z,25.13
2022-09-04T13:51:53.871Z,25.11
2022-09-04T13:54:05.212Z,25.31
2022-09-04T13:56:16.290Z,25.46
2022-09-04T13:58:27.488Z,25.68
2022-09-04T14:00:45.997Z,25.66
2022-09-04T14:02:55.940Z,25.78
2022-09-04T14:05:23.231Z,25.91
2022-09-04T14:07:29.826Z,26.05
2022-09-04T14:09:42.525Z,26.23
2022-09-04T14:12:14.391Z,26.35
2022-09-04T14:14:41.427Z,26.53
2022-09-04T14:16:44.576Z,26.63
2022-09-04T14:19:00.179Z,26.64
2022-09-04T14:21:17.023Z,26.72
2022-09-04T14:23:47.540Z,26.80
2022-09-04T14:26:04.094Z,27.03
2022-09-04T14:28:32.113Z,27.10
2022-09-04T14:30:50.853Z,27.24
2022-09-04T14:33:28.410Z,27.37
2022-09-04T14:35:46.986Z,27.42
2022-09-04T14:38:27.968Z,27.58
2022-09-04T14:41:25.901Z,27.93
2022-09-04T14:43:49.048Z,27.97
2022-09-04T14:45:51.939Z,28.02
2022-09-04T14:48:06.621Z,28.03
2022-09-04T14:50:23.371Z,28.18
2022-09-04T14:52:47.949Z,28.09
2022-09-04T14:55:02.612Z,28.25
2022-09-04T14:57:17.904Z,27.95
2022-09-04T14:59:31.526Z,27.97
2022-09-04T15:01:39.452Z,27.92
2022-09-04T15:03:49.237Z,27.95
2022-09-04T15:05:58.618Z,27.87
2022-09-04T15:08:03.934Z,28.07
2022-09-04T15:10:27.494Z,27.75
2022-09-04T15:12:39.273Z,28.03
2022-09-04T15:15:08.517Z,28.27
2022-09-04T15:17:26.230Z,27.84
2022-09-04T15:19:41.062Z,27.98
2022-09-04T15:21:57.064Z,28.02
2022-09-04T15:24:24.544Z,28.19
2022-09-04T15:27:06.947Z,28.35
2022-09-04T15:29:27.903Z,28.24
2022-09-04T15:31:41.940Z,28.23
2022-09-04T15:33:47.780Z,27.98
2022-09-04T15:36:21.091Z,27.72
2022-09-04T15:38:28.114Z,27.60
2022-09-04T15:41:05.693Z,27.57
2022-09-04T15:43:32.309Z,27.63
2022-09-04T15:45:52.084Z,27.81
2022-09-04T15:48:16.146Z,27.88
2022-09-04T15:50:22.897Z,27.88
2022-09-04T15:52:51.181Z,27.88
2022-09-04T15:55:02.574Z,27.64
2022-09-04T15:57:10.619Z,27.57
2022-09-04T15:59:27.832Z,27.47
2022-09-04T16:01:51.423Z,27.15
2022-09-04T16:04:23.523Z,26.98
2022-09-04T16:06:32.646Z,26.91
2022-09-04T16:08:50.373Z,26.70
2022-09-04T16:11:33.968Z,26.46
2022-09-04T16:13:45.905Z,26.30
2022-09-04T16:15:48.462Z,26.16
2022-09-04T16:17:55.878Z,26.08
2022-09-04T16:20:01.132Z,25.92
2022-09-04T16:22:02.910Z,25.90
2022-09-04T16:24:11.927Z,25.70
2022-09-04T16:26:31.282Z,25.67
2022-09-04T16:28:39.469Z,25.49
2022-09-04T16:30:58.279Z,25.39
2022-09-04T16:33:01.692Z,25.38
2022-09-04T16:35:15.232Z,25.32
2022-09-04T16:37:33.440Z,25.20
2022-09-04T16:39:56.299Z,25.23
2022-09-04T16:42:25.715Z,25.31
2022-09-04T16:44:38.824Z,25.33
2022-09-04T16:47:05.696Z,25.32
2022-09-04T16:49:20.371Z,25.04
2022-09-04T16:51:40.189Z,25.10
2022-09-04T16:54:04.322Z,25.10
2022-09-04T16:56:21.454Z,25.01
2022-09-04T16:58:37.644Z,25.01
2022-09-04T17:01:14.300Z,25.08
2022-09-04T17:03:25.410Z,25.06
2022-09-04T17:05:35.346Z,25.10
2022-09-04T17:07:44.208Z,25.13
2022-09-04T17:09:57.842Z,25.03
2022-09-04T17:12:24.282Z,25.07
2022-09-04T17:14:46.180Z,24.99
2022-09-04T17:17:00.542Z,24.97
2022-09-04T17:19:03.492Z,25.00
2022-09-04T17:28:52.149Z,24.96
2022-09-04T17:29:03.907Z,24.94
2022-09-04T17:29:17.545Z,25.02
2022-09-04T17:29:46.282Z,25.13
2022-09-04T17:31:48.805Z,25.01
2022-09-04T17:40:33.087Z,24.92
2022-09-04T17:40:40.546Z,24.90
2022-09-04T17:40:42.578Z,24.82
2022-09-04T17:42:30.168Z,24.82
2022-09-04T17:44:46.878Z,24.79
2022-09-04T17:47:04.728Z,24.69
2022-09-04T17:49:34.202Z,24.68
2022-09-04T17:51:36.867Z,24.58
2022-09-04T17:53:48.758Z,24.50
2022-09-04T17:55:56.510Z,24.55
2022-09-04T17:58:10.833Z,24.48
2022-09-04T18:00:26.079Z,24.58
2022-09-04T18:02:42.727Z,24.52
2022-09-04T18:05:29.273Z,24.41
2022-09-04T18:08:09.870Z,24.42
2022-09-04T18:10:37.496Z,24.38
2022-09-04T18:13:36.931Z,24.33
2022-09-04T18:15:43.215Z,24.23
2022-09-04T18:17:54.746Z,24.31
2022-09-04T18:20:07.951Z,24.21
2022-09-04T18:23:15.596Z,24.25
2022-09-04T18:25:56.022Z,24.29
2022-09-04T18:28:09.642Z,24.31
2022-09-04T18:37:05.561Z,24.34
2022-09-04T18:37:17.023Z,24.23
2022-09-04T18:37:20.788Z,24.10
2022-09-04T18:38:14.796Z,24.20
2022-09-04T18:41:53.018Z,24.11
2022-09-04T18:50:20.428Z,24.04
2022-09-04T18:50:34.465Z,24.16
2022-09-04T18:50:46.757Z,24.18
2022-09-04T18:51:01.949Z,23.94
2022-09-04T18:53:19.917Z,23.86
2022-09-04T18:55:57.881Z,23.98
2022-09-04T18:58:08.546Z,23.96
2022-09-04T19:00:11.502Z,23.87
2022-09-04T19:02:24.729Z,23.88
2022-09-04T19:05:14.527Z,23.86
2022-09-04T19:07:31.830Z,23.76
2022-09-04T19:10:06.705Z,23.79
2022-09-04T19:12:13.739Z,23.83
2022-09-04T19:14:24.248Z,23.93
2022-09-04T19:16:34.612Z,23.98
2022-09-04T19:18:43.851Z,23.99
2022-09-04T19:20:54.410Z,24.00
2022-09-04T19:23:15.137Z,24.05
2022-09-04T19:25:29.296Z,24.04
2022-09-04T19:27:38.297Z,24.04
2022-09-04T19:30:18.795Z,23.93
2022-09-04T19:32:45.724Z,23.92
2022-09-04T19:35:15.531Z,23.89
2022-09-04T19:39:04.828Z,23.88
2022-09-04T19:45:56.852Z,23.91
2022-09-04T19:46:16.781Z,23.95
2022-09-04T19:46:18.624Z,23.89
2022-09-04T19:48:07.793Z,23.93
2022-09-04T19:53:18.472Z,23.77
2022-09-04T19:53:23.204Z,23.81
2022-09-04T19:55:25.174Z,23.72
2022-09-04T19:57:42.549Z,23.68
2022-09-04T20:00:43.113Z,23.67
2022-09-04T20:03:13.507Z,23.68
2022-09-04T20:05:33.242Z,23.55
2022-09-04T20:07:45.042Z,23.65
2022-09-04T20:09:59.733Z,23.61
2022-09-04T20:12:12.058Z,23.62
2022-09-04T20:14:30.773Z,23.55
2022-09-04T20:16:48.255Z,23.55
2022-09-04T20:19:18.132Z,23.55
2022-09-04T20:21:59.939Z,23.61
2022-09-04T20:24:11.382Z,23.54
2022-09-04T20:26:28.822Z,23.52
2022-09-04T20:28:48.390Z,23.53
2022-09-04T20:31:35.202Z,23.48
2022-09-04T20:33:40.967Z,23.51
2022-09-04T20:35:52.798Z,23.54
2022-09-04T20:37:59.956Z,23.43
2022-09-04T20:40:19.281Z,23.49
2022-09-04T20:43:04.363Z,23.48
2022-09-04T20:47:05.018Z,23.43
2022-09-04T20:52:43.906Z,23.39
2022-09-04T20:52:58.059Z,23.37
2022-09-04T20:53:17.974Z,23.42
2022-09-04T20:55:52.454Z,23.45
2022-09-04T21:03:05.537Z,23.45
2022-09-04T21:03:22.836Z,23.38
2022-09-04T21:03:28.899Z,23.36
2022-09-04T21:06:10.678Z,23.29
2022-09-04T21:08:35.351Z,23.32
2022-09-04T21:10:50.181Z,23.23
2022-09-04T21:13:14.510Z,23.32
2022-09-04T21:15:48.374Z,23.23
2022-09-04T21:18:18.058Z,23.23
2022-09-04T21:20:46.681Z,23.31
2022-09-04T21:23:39.058Z,23.27
2022-09-04T21:26:22.527Z,23.36
2022-09-04T21:29:09.118Z,23.27
2022-09-04T21:31:49.954Z,23.28
2022-09-04T21:34:22.158Z,23.34
2022-09-04T21:36:38.214Z,23.27
2022-09-04T21:38:54.060Z,23.26
2022-09-04T21:41:29.406Z,23.28
2022-09-04T21:43:49.634Z,23.22
2022-09-04T21:46:04.621Z,23.25
2022-09-04T21:48:17.828Z,23.35
2022-09-04T21:50:44.805Z,23.32
2022-09-04T21:53:15.011Z,23.32
2022-09-04T22:00:54.813Z,23.28
2022-09-04T22:02:30.336Z,23.35
2022-09-04T22:02:38.829Z,23.33
2022-09-04T22:03:15.266Z,23.30
2022-09-04T22:05:21.765Z,23.35
2022-09-04T22:12:13.081Z,23.32
2022-09-04T22:13:28.797Z,23.35
2022-09-04T22:13:33.775Z,23.26
2022-09-04T22:15:07.431Z,23.27
2022-09-04T22:17:30.032Z,23.28
2022-09-04T22:19:52.914Z,23.29
2022-09-04T22:22:03.906Z,23.24
2022-09-04T22:24:41.510Z,23.30
2022-09-04T22:26:43.151Z,23.31
2022-09-04T22:29:08.269Z,23.26
2022-09-04T22:31:40.451Z,23.20
2022-09-04T22:34:15.369Z,23.26
2022-09-04T22:36:28.321Z,23.18
2022-09-04T22:38:32.683Z,23.15
2022-09-04T22:40:56.429Z,23.06
2022-09-04T22:43:11.656Z,23.17
2022-09-04T22:45:53.328Z,23.14
2022-09-04T22:48:40.921Z,23.09
2022-09-04T22:50:50.167Z,23.03
2022-09-04T22:53:22.745Z,23.03
2022-09-04T22:56:22.798Z,23.06
2022-09-04T22:58:38.300Z,23.00
2022-09-04T23:01:36.761Z,23.02
2022-09-04T23:04:23.970Z,22.97
2022-09-04T23:11:59.936Z,22.91
2022-09-04T23:13:50.644Z,22.96
2022-09-04T23:13:56.345Z,22.97
2022-09-04T23:14:55.110Z,22.94
2022-09-04T23:17:28.991Z,22.95
2022-09-04T23:23:05.126Z,22.88
2022-09-04T23:26:44.303Z,22.83
2022-09-04T23:26:50.900Z,22.87
2022-09-04T23:27:57.732Z,22.85
2022-09-04T23:30:12.660Z,22.81
2022-09-04T23:32:31.830Z,22.81
2022-09-04T23:35:13.915Z,22.77
2022-09-04T23:38:00.485Z,22.84
2022-09-04T23:40:29.075Z,22.80
2022-09-04T23:42:50.772Z,22.83
2022-09-04T23:45:29.953Z,22.76
2022-09-04T23:47:58.812Z,22.70
2022-09-04T23:50:19.182Z,22.75
2022-09-04T23:52:34.044Z,22.74
2022-09-04T23:55:03.456Z,22.66
2022-09-04T23:57:26.909Z,22.68
